Time;durP1;ratioP1;P1;durP2;ratioP2;P2;SDS_P1;SDS_P2;PMS_P1;PMS_P2;Temp;Humidity;BMP_temperature;BMP_pressure;BME280_temperature;BME280_humidity;BME280_pressure;Samples;Min_cycle;Max_cycle;Signal;HPM_P1;HPM_P2
2022/05/31 00:01:01;;;;;;;6.20;4.22;;;;;;;9.70;100.00;101397.41;5094967;28;20093;-72
2022/05/31 00:03:26;;;;;;;5.53;3.80;;;;;;;9.71;100.00;101393.94;5097239;28;20405;-73
2022/05/31 00:05:51;;;;;;;7.78;3.95;;;;;;;9.67;100.00;101399.03;5092007;28;20043;-72
2022/05/31 00:08:16;;;;;;;8.80;4.25;;;;;;;9.62;100.00;101394.53;5095338;28;20034;-72
2022/05/31 00:10:42;;;;;;;8.25;4.90;;;;;;;9.59;100.00;101394.47;5105243;28;20036;-72
2022/05/31 00:13:08;;;;;;;6.05;4.63;;;;;;;9.58;100.00;101391.78;5100740;28;20080;-71
2022/05/31 00:15:33;;;;;;;7.57;4.10;;;;;;;9.58;100.00;101391.78;5109447;28;20038;-71
2022/05/31 00:17:58;;;;;;;6.53;4.20;;;;;;;9.57;100.00;101390.00;5095353;28;20349;-72
2022/05/31 00:20:24;;;;;;;5.47;4.68;;;;;;;9.60;100.00;101396.25;5103455;28;20024;-71
2022/05/31 00:22:50;;;;;;;8.10;4.45;;;;;;;9.59;100.00;101383.97;5093736;28;20119;-71
2022/05/31 00:25:16;;;;;;;7.85;4.82;;;;;;;9.57;100.00;101390.00;5094324;28;20016;-71
2022/05/31 00:27:42;;;;;;;5.93;4.60;;;;;;;9.54;100.00;101390.81;5095073;28;20026;-72
2022/05/31 00:30:08;;;;;;;7.60;5.20;;;;;;;9.58;100.00;101386.53;5086935;28;20473;-73
2022/05/31 00:32:39;;;;;;;8.30;5.00;;;;;;;9.56;100.00;101388.22;5097423;28;20075;-70
2022/05/31 00:35:08;;;;;;;9.60;4.53;;;;;;;9.56;100.00;101389.13;5097830;28;20059;-71
2022/05/31 00:37:35;;;;;;;8.98;5.10;;;;;;;9.55;100.00;101391.69;5099047;28;20176;-71
2022/05/31 00:40:01;;;;;;;8.43;5.05;;;;;;;9.56;100.00;101385.59;5098769;28;20027;-72
2022/05/31 00:42:26;;;;;;;10.75;5.13;;;;;;;9.52;100.00;101386.34;5095942;28;20028;-72
2022/05/31 00:44:52;;;;;;;6.93;4.80;;;;;;;9.52;100.00;101384.63;5105793;28;20074;-71
2022/05/31 00:47:30;;;;;;;13.85;6.88;;;;;;;9.47;100.00;101380.06;5098227;28;20461;-71
2022/05/31 00:50:06;;;;;;;15.25;6.90;;;;;;;9.45;100.00;101387.91;5101346;28;20438;-71
2022/05/31 00:52:36;;;;;;;8.65;6.32;;;;;;;9.48;100.00;101379.22;5102002;28;20064;-72
2022/05/31 00:55:13;;;;;;;13.95;6.25;;;;;;;9.45;100.00;101380.94;5094955;28;20035;-70
2022/05/31 00:57:44;;;;;;;9.38;5.90;;;;;;;9.45;100.00;101380.94;5093613;28;20123;-72
2022/05/31 01:00:14;;;;;;;13.90;8.82;;;;;;;9.42;100.00;101386.06;5093562;28;20076;-71
2022/05/31 01:02:41;;;;;;;15.63;10.55;;;;;;;9.40;100.00;101379.91;5094001;28;20039;-71
2022/05/31 01:05:09;;;;;;;21.48;14.10;;;;;;;9.40;100.00;101374.66;5092192;28;20032;-71
2022/05/31 01:07:34;;;;;;;20.13;11.48;;;;;;;9.38;100.00;101373.69;5094206;28;20042;-71
2022/05/31 01:10:02;;;;;;;20.85;11.98;;;;;;;9.39;100.00;101375.47;5094168;28;20475;-71
2022/05/31 01:12:28;;;;;;;18.42;9.88;;;;;;;9.32;100.00;101378.78;5093782;28;20032;-70
2022/05/31 01:14:54;;;;;;;13.15;8.90;;;;;;;9.32;100.00;101381.41;5075606;28;20028;-71
2022/05/31 01:17:22;;;;;;;19.27;9.27;;;;;;;9.30;100.00;101367.31;5093158;28;20460;-70
2022/05/31 01:19:59;;;;;;;12.52;8.18;;;;;;;9.30;100.00;101375.19;5084545;28;20024;-71
2022/05/31 01:22:39;;;;;;;13.30;7.88;;;;;;;9.28;100.00;101372.53;5102000;28;20535;-71
2022/05/31 01:25:05;;;;;;;11.35;7.25;;;;;;;9.29;100.00;101373.41;5109336;28;20104;-70
2022/05/31 01:27:40;;;;;;;11.55;7.72;;;;;;;9.28;100.00;101363.78;5104568;28;20548;-71
2022/05/31 01:30:08;;;;;;;11.02;7.10;;;;;;;9.27;100.00;101365.50;5083416;28;20033;-72
2022/05/31 01:32:40;;;;;;;10.10;7.65;;;;;;;9.30;100.00;101369.94;5089229;28;20562;-71
2022/05/31 01:35:11;;;;;;;10.48;7.55;;;;;;;9.30;100.00;101375.19;5092630;28;20077;-71
2022/05/31 01:37:52;;;;;;;15.38;7.97;;;;;;;9.33;100.00;101367.41;5099750;28;20029;-72
2022/05/31 01:40:46;;;;;;;9.20;6.70;;;;;;;9.36;100.00;101375.41;5099633;28;20027;-71
2022/05/31 01:43:12;;;;;;;10.73;7.70;;;;;;;9.37;100.00;101371.03;5101275;28;20188;-72
2022/05/31 01:45:49;;;;;;;9.85;7.45;;;;;;;9.37;100.00;101366.69;5093611;28;20077;-72
2022/05/31 01:48:15;;;;;;;11.88;7.50;;;;;;;9.42;100.00;101370.31;5106801;28;20399;-70
2022/05/31 01:50:41;;;;;;;9.82;7.97;;;;;;;9.41;100.00;101362.38;5098888;28;20021;-71
2022/05/31 01:53:08;;;;;;;8.95;7.63;;;;;;;9.43;100.00;101364.22;5102036;28;20482;-71
2022/05/31 01:55:36;;;;;;;10.13;7.30;;;;;;;9.36;100.00;101363.97;5110845;28;20023;-71
2022/05/31 01:58:05;;;;;;;10.32;7.22;;;;;;;9.30;100.00;101359.44;5105084;28;20059;-71
2022/05/31 02:00:30;;;;;;;12.07;7.43;;;;;;;9.30;100.00;101354.19;5109349;28;20031;-71
2022/05/31 02:02:58;;;;;;;8.77;7.65;;;;;;;9.25;100.00;101361.03;5101009;28;20476;-71
2022/05/31 02:05:24;;;;;;;12.80;8.25;;;;;;;9.25;100.00;101361.03;5097906;28;20414;-71
2022/05/31 02:07:59;;;;;;;12.68;8.52;;;;;;;9.24;100.00;101360.16;5095645;28;20022;-71
2022/05/31 02:10:25;;;;;;;11.00;7.45;;;;;;;9.23;100.00;101357.47;5106615;28;20028;-72
2022/05/31 02:12:51;;;;;;;12.70;8.77;;;;;;;9.24;100.00;101354.91;5092172;28;20024;-72
2022/05/31 02:15:18;;;;;;;17.42;8.45;;;;;;;9.17;100.00;101362.53;5104650;28;20471;-71
2022/05/31 02:17:43;;;;;;;13.90;8.35;;;;;;;9.18;100.00;101356.44;5100797;28;20043;-71
2022/05/31 02:20:09;;;;;;;11.27;8.13;;;;;;;9.14;100.00;101354.56;5099514;28;20027;-71
2022/05/31 02:22:35;;;;;;;12.27;8.85;;;;;;;9.18;100.00;101359.06;5092508;28;20467;-72
2022/05/31 02:25:00;;;;;;;11.95;8.75;;;;;;;9.18;100.00;101346.81;5103358;28;20107;-71
2022/05/31 02:27:26;;;;;;;9.90;8.50;;;;;;;9.16;100.00;101350.28;5088412;28;20040;-72
2022/05/31 02:29:52;;;;;;;11.68;9.40;;;;;;;9.13;100.00;101358.03;5106104;28;20387;-72
2022/05/31 02:32:17;;;;;;;10.13;8.85;;;;;;;9.08;100.00;101350.91;5097231;28;20040;-72
2022/05/31 02:34:47;;;;;;;11.40;9.15;;;;;;;9.05;100.00;101352.56;5102107;28;20032;-71
2022/05/31 02:37:13;;;;;;;11.98;8.18;;;;;;;9.04;100.00;101351.66;5098826;28;20022;-71
2022/05/31 02:39:39;;;;;;;14.70;8.82;;;;;;;9.02;100.00;101350.72;5098793;28;20085;-72
2022/05/31 02:42:06;;;;;;;15.02;9.10;;;;;;;8.99;100.00;101353.25;5095565;28;20479;-72
2022/05/31 02:44:31;;;;;;;12.02;8.85;;;;;;;8.98;100.00;101350.56;5110982;28;20474;-72
2022/05/31 02:46:57;;;;;;;13.07;8.82;;;;;;;8.98;100.00;101341.00;5099618;28;20103;-72
2022/05/31 02:49:22;;;;;;;13.60;8.52;;;;;;;8.99;100.00;101348.00;5103912;28;20078;-71
2022/05/31 02:51:48;;;;;;;12.93;9.45;;;;;;;8.96;100.00;101347.91;5092573;28;20020;-71
2022/05/31 02:54:16;;;;;;;11.68;9.00;;;;;;;9.03;100.00;101347.25;5096186;28;20514;-72
2022/05/31 02:56:42;;;;;;;11.95;8.02;;;;;;;8.97;100.00;101344.44;5105654;28;20050;-71
2022/05/31 02:59:07;;;;;;;13.77;9.10;;;;;;;8.98;100.00;101341.00;5115948;28;20020;-71
2022/05/31 03:01:35;;;;;;;14.27;8.77;;;;;;;8.96;100.00;101340.03;5102450;28;20024;-71
2022/05/31 03:04:01;;;;;;;12.98;8.90;;;;;;;8.96;100.00;101347.91;5108985;28;20031;-70
2022/05/31 03:06:27;;;;;;;11.95;9.00;;;;;;;8.94;100.00;101344.38;5116558;28;20031;-71
2022/05/31 03:08:52;;;;;;;10.68;8.40;;;;;;;8.90;100.00;101337.22;5097567;28;20115;-71
2022/05/31 03:11:42;;;;;;;13.07;9.40;;;;;;;8.83;100.00;101340.47;5101830;28;20039;-72
2022/05/31 03:14:13;;;;;;;14.30;9.38;;;;;;;8.78;100.00;101341.22;5109080;28;20020;-71
2022/05/31 03:16:41;;;;;;;11.48;8.38;;;;;;;8.78;100.00;101342.97;5116833;27;20072;-72
2022/05/31 03:19:12;;;;;;;13.18;9.05;;;;;;;8.77;100.00;101341.19;5098291;28;20385;-72
2022/05/31 03:21:52;;;;;;;11.68;9.13;;;;;;;8.77;100.00;101346.44;5088976;28;20115;-71
2022/05/31 03:24:24;;;;;;;13.55;8.80;;;;;;;8.74;100.00;101339.34;5100474;28;20016;-71
2022/05/31 03:26:52;;;;;;;12.57;8.73;;;;;;;8.74;100.00;101339.34;5081624;28;20598;-71
2022/05/31 03:29:17;;;;;;;11.63;8.13;;;;;;;8.70;100.00;101334.84;5102532;28;20026;-71
2022/05/31 03:31:43;;;;;;;13.60;9.48;;;;;;;8.75;100.00;101335.00;5102017;28;20032;-70
2022/05/31 03:34:09;;;;;;;14.93;8.95;;;;;;;8.75;100.00;101337.63;5101154;28;20020;-71
2022/05/31 03:36:34;;;;;;;17.95;9.32;;;;;;;8.76;100.00;101339.41;5097520;28;20063;-72
2022/05/31 03:39:00;;;;;;;12.57;9.30;;;;;;;8.77;100.00;101336.81;5095593;28;20028;-71
2022/05/31 03:41:26;;;;;;;10.75;9.05;;;;;;;8.77;100.00;101331.56;5092721;28;20027;-72
2022/05/31 03:43:51;;;;;;;11.95;8.90;;;;;;;8.81;100.00;101332.56;5095365;28;20024;-72
2022/05/31 03:46:17;;;;;;;13.60;9.63;;;;;;;8.95;100.00;101335.63;5104897;28;20026;-72
2022/05/31 03:48:42;;;;;;;14.73;8.98;;;;;;;8.88;100.00;101326.66;5112299;28;20056;-72
2022/05/31 03:51:11;;;;;;;12.63;9.23;;;;;;;8.89;100.00;101331.06;5096480;28;20024;-72
2022/05/31 03:53:38;;;;;;;10.70;8.40;;;;;;;8.87;100.00;101332.78;5094687;28;20136;-71
2022/05/31 03:56:06;;;;;;;11.90;9.00;;;;;;;8.86;100.00;101331.00;5101185;28;20107;-71
2022/05/31 03:58:32;;;;;;;11.93;9.20;;;;;;;8.89;100.00;101332.81;5098157;28;20023;-72
2022/05/31 04:00:59;;;;;;;10.77;8.88;;;;;;;8.86;100.00;101331.00;5114150;28;20073;-72
2022/05/31 04:03:25;;;;;;;13.02;8.35;;;;;;;8.88;100.00;101329.28;5107424;28;20035;-71
2022/05/31 04:05:51;;;;;;;11.32;8.63;;;;;;;8.91;100.00;101337.28;5095931;28;20024;-72
2022/05/31 04:08:19;;;;;;;12.52;8.73;;;;;;;8.93;100.00;101332.06;5095160;28;20028;-72
2022/05/31 04:10:45;;;;;;;18.55;9.40;;;;;;;8.96;100.00;101334.78;5103012;28;20035;-72
2022/05/31 04:13:11;;;;;;;15.35;9.77;;;;;;;8.99;100.00;101337.50;5110352;28;20024;-73
2022/05/31 04:15:37;;;;;;;16.42;9.68;;;;;;;9.03;100.00;101321.00;5098340;28;20028;-71
2022/05/31 04:18:04;;;;;;;10.23;8.50;;;;;;;9.05;100.00;101326.31;5099733;28;20032;-71
2022/05/31 04:20:30;;;;;;;14.93;10.38;;;;;;;9.08;100.00;101316.78;5112463;28;20562;-72
2022/05/31 04:23:57;;;;;;;13.48;9.35;;;;;;;9.14;100.00;101320.44;5108677;28;20509;-71
2022/05/31 04:25:42;;;;;;;13.05;9.13;;;;;;;9.16;100.00;101319.66;5109275;28;20467;-72
2022/05/31 04:28:08;;;;;;;12.80;9.32;;;;;;;9.18;100.00;101330.19;5085128;28;20099;-71
2022/05/31 04:30:33;;;;;;;10.75;9.25;;;;;;;9.20;100.00;101325.88;5084227;28;20487;-72
2022/05/31 04:32:59;;;;;;;15.18;10.13;;;;;;;9.22;100.00;101324.19;5094909;28;20055;-72
2022/05/31 04:35:24;;;;;;;15.68;10.13;;;;;;;9.22;100.00;101324.19;5095744;28;20514;-71
2022/05/31 04:37:49;;;;;;;15.65;10.80;;;;;;;9.22;100.00;101319.81;5094890;28;20028;-71
2022/05/31 04:40:15;;;;;;;12.05;9.98;;;;;;;9.24;100.00;101319.88;5101601;28;20378;-72
2022/05/31 04:42:42;;;;;;;17.27;10.00;;;;;;;9.30;100.00;101317.41;5094580;28;20098;-72
2022/05/31 04:45:08;;;;;;;11.50;10.18;;;;;;;9.31;100.00;101313.06;5095121;28;20051;-72
2022/05/31 04:47:33;;;;;;;11.10;9.60;;;;;;;9.32;100.00;101314.84;5094546;28;20079;-71
2022/05/31 04:49:59;;;;;;;14.65;10.02;;;;;;;9.34;100.00;101311.41;5094403;28;20067;-72
2022/05/31 04:52:24;;;;;;;14.98;9.90;;;;;;;9.39;100.00;101311.56;5092650;28;20071;-71
2022/05/31 04:54:49;;;;;;;15.07;10.45;;;;;;;9.42;100.00;101319.53;5094688;28;20448;-71
2022/05/31 04:57:14;;;;;;;14.20;10.65;;;;;;;9.42;100.00;101312.53;5091722;28;20028;-72
2022/05/31 04:59:40;;;;;;;14.07;10.27;;;;;;;9.50;100.00;101314.50;5111754;28;20051;-71
2022/05/31 05:02:05;;;;;;;16.60;10.52;;;;;;;9.58;100.00;101307.72;5103628;28;20152;-72
2022/05/31 05:04:30;;;;;;;17.42;11.23;;;;;;;9.65;100.00;101311.41;5100356;28;20039;-72
2022/05/31 05:06:57;;;;;;;13.73;11.35;;;;;;;9.73;100.00;101310.75;5093335;28;20099;-71
2022/05/31 05:09:22;;;;;;;12.45;9.73;;;;;;;9.76;100.00;101313.47;5093223;28;20031;-71
2022/05/31 05:11:47;;;;;;;19.63;11.95;;;;;;;9.79;100.00;101308.31;5093667;28;20028;-71
2022/05/31 05:14:13;;;;;;;12.63;10.15;;;;;;;9.85;100.00;101309.31;5096747;28;20031;-71
2022/05/31 05:16:38;;;;;;;11.45;9.70;;;;;;;9.91;100.00;101304.22;5099514;28;20055;-72
2022/05/31 05:19:03;;;;;;;15.02;10.18;;;;;;;9.94;100.00;101306.94;5111511;28;20044;-71
2022/05/31 05:21:29;;;;;;;13.73;9.98;;;;;;;10.03;100.00;101301.91;5105569;28;20025;-71
2022/05/31 05:23:55;;;;;;;14.25;10.45;;;;;;;10.08;100.00;101294.16;5105725;28;20086;-71
2022/05/31 05:26:20;;;;;;;14.23;9.65;;;;;;;10.10;100.00;101293.31;5093116;28;20036;-72
2022/05/31 05:31:33;;;;;;;17.80;9.32;;;;;;;10.18;100.00;101290.91;5088026;28;20031;-72
2022/05/31 05:34:00;;;;;;;12.50;9.00;;;;;;;10.23;100.00;101293.66;5108479;28;20542;-71
2022/05/31 05:36:25;;;;;;;15.77;9.25;;;;;;;10.25;100.00;101289.31;5096935;28;20433;-71
2022/05/31 05:38:51;;;;;;;14.25;9.32;;;;;;;10.31;100.00;101294.75;5093761;28;20035;-71
2022/05/31 05:41:18;;;;;;;12.63;9.32;;;;;;;10.38;100.00;101294.06;5108187;28;20563;-72
2022/05/31 05:43:43;;;;;;;11.60;9.10;;;;;;;10.41;100.00;101294.13;5093889;28;20093;-71
2022/05/31 05:46:25;;;;;;;15.23;9.20;;;;;;;10.50;100.00;101297.84;5091495;28;20027;-72
2022/05/31 05:48:51;;;;;;;14.65;8.45;;;;;;;10.53;100.00;101288.28;5098516;28;20556;-69
2022/05/31 05:51:19;;;;;;;12.75;9.25;;;;;;;10.66;100.00;101292.09;5093504;28;20052;-67
2022/05/31 05:53:45;;;;;;;14.93;9.80;;;;;;;10.77;100.00;101298.50;5109116;28;20043;-67
2022/05/31 05:56:11;;;;;;;16.48;9.77;;;;;;;10.85;100.00;101298.69;5089876;28;20038;-67
2022/05/31 05:58:37;;;;;;;15.40;9.85;;;;;;;10.99;100.00;101295.44;5095400;28;20134;-66
2022/05/31 06:01:05;;;;;;;14.98;9.45;;;;;;;11.07;100.00;101292.16;5096172;28;20107;-71
2022/05/31 06:03:41;;;;;;;14.90;9.45;;;;;;;11.16;100.00;101293.19;5089965;28;20394;-71
2022/05/31 06:06:09;;;;;;;11.63;9.35;;;;;;;11.21;100.00;101286.28;5091085;28;20043;-72
2022/05/31 06:08:44;;;;;;;13.60;9.60;;;;;;;11.26;100.00;101289.91;5083142;28;21476;-73
2022/05/31 06:11:17;;;;;;;12.20;8.68;;;;;;;11.32;100.00;101292.66;5085338;28;20418;-69
2022/05/31 06:13:52;;;;;;;15.15;9.25;;;;;;;11.34;100.00;101290.97;5086340;28;20088;-71
2022/05/31 06:16:21;;;;;;;11.88;8.55;;;;;;;11.43;100.00;101290.25;5090121;28;20027;-72
2022/05/31 06:18:51;;;;;;;12.75;9.10;;;;;;;11.46;100.00;101285.94;5103798;28;20036;-70
2022/05/31 06:21:20;;;;;;;13.90;9.73;;;;;;;11.49;100.00;101290.38;5091597;28;20046;-70
2022/05/31 06:23:48;;;;;;;10.98;9.20;;;;;;;11.49;100.00;101295.66;5092067;28;20400;-70
2022/05/31 06:26:14;;;;;;;16.77;9.13;;;;;;;11.47;100.00;101287.69;5112521;28;20065;-71
2022/05/31 06:28:39;;;;;;;12.98;9.02;;;;;;;11.52;100.00;101292.19;5105492;28;20023;-70
2022/05/31 06:31:04;;;;;;;13.05;9.02;;;;;;;11.53;100.00;101286.03;5108567;28;20019;-69
2022/05/31 06:33:30;;;;;;;12.95;8.95;;;;;;;11.55;100.00;101292.25;5094750;28;20160;-70
2022/05/31 06:35:55;;;;;;;10.48;8.82;;;;;;;11.54;100.00;101291.34;5096740;28;20173;-70
2022/05/31 06:38:20;;;;;;;11.93;9.02;;;;;;;11.55;100.00;101293.13;5091757;28;20028;-71
2022/05/31 06:40:46;;;;;;;14.48;8.80;;;;;;;11.55;100.00;101285.22;5095184;28;20035;-71
2022/05/31 06:43:11;;;;;;;15.18;8.77;;;;;;;11.61;100.00;101289.72;5107285;28;20145;-69
2022/05/31 06:45:36;;;;;;;14.40;9.43;;;;;;;11.63;100.00;101288.00;5096045;28;20386;-68
2022/05/31 06:48:01;;;;;;;14.65;9.10;;;;;;;11.66;100.00;101293.34;5093724;28;20051;-71
2022/05/31 06:50:27;;;;;;;12.63;9.35;;;;;;;11.70;100.00;101294.28;5091914;28;20048;-71
2022/05/31 06:58:20;;;;;;;;;;;;;;;11.93;100.00;101286.81;5091850;28;20085;-70
2022/05/31 07:00:45;;;;;;;17.07;8.90;;;;;;;12.04;100.00;101285.28;5090207;28;19919;-70
2022/05/31 07:03:11;;;;;;;13.40;8.45;;;;;;;12.09;100.00;101283.59;5108526;28;20277;-70
2022/05/31 07:05:38;;;;;;;11.93;8.82;;;;;;;12.21;100.00;101282.94;5105236;28;20036;-71
2022/05/31 07:08:04;;;;;;;11.23;8.70;;;;;;;12.24;100.00;101282.09;5091921;28;20024;-70
2022/05/31 07:10:29;;;;;;;10.35;7.75;;;;;;;12.31;100.00;101281.34;5100147;28;20036;-70
2022/05/31 07:12:54;;;;;;;10.13;7.88;;;;;;;12.37;100.00;101284.09;5112971;28;20429;-69
2022/05/31 07:15:19;;;;;;;10.68;7.47;;;;;;;12.42;100.00;101286.78;5108818;28;20016;-70
2022/05/31 07:17:46;;;;;;;13.65;8.65;;;;;;;12.39;100.00;101289.38;5110657;28;20035;-69
2022/05/31 07:20:12;;;;;;;15.50;7.30;;;;;;;12.38;100.00;101280.56;5116751;28;20065;-70
2022/05/31 07:22:38;;;;;;;12.27;7.60;;;;;;;12.43;100.00;101281.53;5116702;28;20023;-70
2022/05/31 07:25:05;;;;;;;11.55;8.07;;;;;;;12.51;100.00;101280.75;5097371;28;20020;-71
2022/05/31 07:27:32;;;;;;;10.90;7.55;;;;;;;12.57;100.00;101284.38;5111899;28;20030;-70
2022/05/31 07:29:57;;;;;;;16.15;7.88;;;;;;;12.64;100.00;101290.63;5116716;28;20035;-69
2022/05/31 07:32:22;;;;;;;13.20;8.00;;;;;;;12.74;100.00;101284.66;5100043;28;20475;-70
2022/05/31 07:34:51;;;;;;;10.93;7.57;;;;;;;12.89;100.00;101288.38;5094254;28;20036;-70
2022/05/31 07:37:16;;;;;;;10.52;7.82;;;;;;;13.03;100.00;101285.94;5094409;28;20107;-69
2022/05/31 07:39:42;;;;;;;12.70;7.57;;;;;;;13.11;100.00;101277.22;5094822;28;20051;-70
2022/05/31 07:42:07;;;;;;;9.60;7.05;;;;;;;13.22;100.00;101282.66;5097194;28;20028;-70
2022/05/31 07:44:32;;;;;;;14.35;6.43;;;;;;;13.31;100.00;101273.97;5116307;28;20046;-70
2022/05/31 07:47:02;;;;;;;9.02;6.28;;;;;;;13.44;100.00;101270.63;5100309;28;20111;-70
2022/05/31 07:49:28;;;;;;;9.70;7.30;;;;;;;13.64;100.00;101280.53;5099452;28;20060;-70
2022/05/31 07:51:53;;;;;;;10.43;6.38;;;;;;;13.79;100.00;101279.81;5108111;28;20120;-69
2022/05/31 07:54:18;;;;;;;8.80;6.07;;;;;;;13.96;100.00;101269.41;5095575;28;20443;-70
2022/05/31 07:56:44;;;;;;;8.02;5.70;;;;;;;14.03;100.00;101268.59;5095178;28;20035;-71
2022/05/31 07:59:09;;;;;;;6.13;4.63;;;;;;;14.08;100.00;101261.56;5101081;28;20051;-70
2022/05/31 08:01:35;;;;;;;8.82;5.22;;;;;;;14.15;99.30;101265.16;5103209;28;20081;-70
2022/05/31 08:04:00;;;;;;;10.80;5.82;;;;;;;14.18;98.48;101261.66;5115894;27;20023;-70
2022/05/31 08:06:30;;;;;;;10.52;5.75;;;;;;;14.25;97.28;101263.47;5098974;27;20027;-70
2022/05/31 08:08:57;;;;;;;9.93;5.45;;;;;;;14.37;95.85;101263.56;5094401;28;20096;-70
2022/05/31 08:11:28;;;;;;;10.40;5.70;;;;;;;14.46;99.41;101268.94;5095314;28;20073;-70
2022/05/31 08:13:55;;;;;;;9.65;5.82;;;;;;;14.57;98.28;101258.41;5092863;28;20536;-70
2022/05/31 08:16:22;;;;;;;9.55;5.43;;;;;;;14.66;95.11;101254.97;5101594;28;20036;-71
2022/05/31 08:18:48;;;;;;;7.47;4.60;;;;;;;14.78;92.23;101252.38;5097281;28;20036;-70
2022/05/31 08:21:17;;;;;;;8.52;4.22;;;;;;;14.88;86.33;101249.78;5111776;28;20055;-71
2022/05/31 08:23:43;;;;;;;12.02;4.05;;;;;;;14.96;82.95;101254.28;5113079;28;20359;-71
2022/05/31 08:26:09;;;;;;;7.57;4.43;;;;;;;15.09;86.21;101260.50;5109781;28;20128;-69
2022/05/31 08:28:35;;;;;;;7.82;4.13;;;;;;;15.22;87.94;101252.59;5103373;28;20548;-71
2022/05/31 08:31:04;;;;;;;10.20;4.57;;;;;;;15.33;84.96;101256.19;5095216;28;20055;-71
2022/05/31 08:33:30;;;;;;;11.95;5.15;;;;;;;15.39;85.59;101248.25;5090563;28;20082;-70
2022/05/31 08:35:56;;;;;;;10.15;4.50;;;;;;;15.54;86.16;101263.31;5097540;28;20024;-70
2022/05/31 08:38:22;;;;;;;8.13;3.65;;;;;;;15.64;78.59;101253.59;5096328;28;20028;-70
2022/05/31 08:40:56;;;;;;;6.10;2.47;;;;;;;15.72;68.42;101250.97;5094386;28;20476;-70
2022/05/31 08:43:35;;;;;;;5.57;3.28;;;;;;;15.62;66.77;101250.09;5091000;28;20057;-71
2022/05/31 08:46:07;;;;;;;5.30;2.42;;;;;;;15.75;67.05;101249.22;5096797;28;20060;-70
2022/05/31 08:48:44;;;;;;;6.82;2.90;;;;;;;15.85;63.74;101251.03;5097638;28;20043;-72
2022/05/31 08:56:57;;;;;;;6.63;3.15;;;;;;;16.17;65.88;101255.47;5094700;28;20129;-71
2022/05/31 08:59:29;;;;;;;6.55;3.15;;;;;;;16.25;63.80;101249.28;5094091;28;20023;-71
2022/05/31 09:01:59;;;;;;;7.50;3.50;;;;;;;16.29;61.79;101251.03;5092805;28;20031;-71
2022/05/31 09:04:39;;;;;;;8.60;3.67;;;;;;;16.44;65.59;101253.72;5096816;28;20032;-71
2022/05/31 09:07:09;;;;;;;10.07;3.63;;;;;;;16.59;64.63;101252.78;5093046;28;20020;-70
2022/05/31 09:09:56;;;;;;;7.43;3.58;;;;;;;16.75;65.99;101245.66;5094546;28;20016;-70
2022/05/31 09:12:49;;;;;;;7.50;2.75;;;;;;;16.89;64.69;101252.72;5097979;28;20088;-71
2022/05/31 09:15:24;;;;;;;6.50;3.00;;;;;;;16.89;58.74;101245.66;5114406;28;20471;-70
2022/05/31 09:18:16;;;;;;;8.68;3.65;;;;;;;17.09;60.40;101242.03;5113199;28;20031;-71
2022/05/31 09:20:46;;;;;;;7.78;2.72;;;;;;;17.18;58.78;101232.25;5081221;28;20036;-71
2022/05/31 09:23:20;;;;;;;6.10;2.60;;;;;;;17.26;60.53;101236.66;5106445;28;20437;-71
2022/05/31 09:25:46;;;;;;;7.70;3.08;;;;;;;17.46;60.48;101231.25;5100506;28;20047;-72
2022/05/31 09:28:37;;;;;;;7.38;2.55;;;;;;;17.65;57.21;101226.69;5106146;28;20023;-73
2022/05/31 09:31:14;;;;;;;5.80;2.75;;;;;;;17.47;49.70;101215.28;5090813;28;20468;-72
2022/05/31 09:33:53;;;;;;;2.10;1.85;;;;;;;17.64;54.33;101225.78;5084675;28;20403;-72
2022/05/31 09:36:24;;;;;;;6.80;2.97;;;;;;;17.80;51.82;101225.69;5079219;28;20016;-72
2022/05/31 09:39:07;;;;;;;8.55;2.72;;;;;;;17.77;51.52;101231.94;5093739;28;20464;-73
2022/05/31 09:41:36;;;;;;;;;;;;;;;17.99;52.30;101221.16;5091139;28;20032;-72
2022/05/31 09:44:11;;;;;;;6.25;2.67;;;;;;;18.05;51.87;101221.06;5101264;28;19919;-72
2022/05/31 09:47:14;;;;;;;6.75;2.80;;;;;;;18.01;50.56;101222.00;5093377;28;20387;-71
2022/05/31 09:49:43;;;;;;;6.72;3.10;;;;;;;18.27;52.78;101215.56;5081029;28;20507;-72
2022/05/31 09:52:30;;;;;;;5.78;2.22;;;;;;;18.20;50.38;101207.66;5091944;28;20476;-70
2022/05/31 09:58:15;;;;;;;8.93;3.30;;;;;;;18.20;53.08;101215.63;5087221;28;20399;-71
2022/05/31 10:01:05;;;;;;;4.28;2.40;;;;;;;18.11;47.96;101209.47;5093380;28;20020;-70
2022/05/31 10:03:48;;;;;;;5.43;2.40;;;;;;;17.94;49.13;101201.66;5093039;28;20085;-71
2022/05/31 10:06:20;;;;;;;4.23;2.40;;;;;;;17.87;49.36;101206.13;5087437;28;20075;-71
2022/05/31 10:08:48;;;;;;;2.60;1.80;;;;;;;17.68;48.97;101211.56;5092472;28;20023;-71
2022/05/31 10:11:20;;;;;;;7.03;2.38;;;;;;;17.67;49.38;101204.47;5092917;28;20028;-71
2022/05/31 10:14:01;;;;;;;5.05;2.83;;;;;;;17.48;48.85;101198.38;5097299;28;20470;-71
2022/05/31 10:16:30;;;;;;;5.20;2.40;;;;;;;17.36;50.51;101203.78;5092899;28;20020;-71
2022/05/31 10:18:58;;;;;;;8.73;2.38;;;;;;;17.40;54.32;101204.66;5091446;28;20026;-71
2022/05/31 10:21:40;;;;;;;8.20;2.55;;;;;;;17.41;51.88;101202.00;5089307;28;20046;-70
2022/05/31 10:24:19;;;;;;;6.65;2.60;;;;;;;17.24;50.59;101209.19;5092740;28;20031;-71
2022/05/31 10:27:04;;;;;;;7.35;2.80;;;;;;;17.12;50.72;101205.69;5094350;28;20111;-72
2022/05/31 10:29:33;;;;;;;4.88;2.38;;;;;;;17.14;50.59;101203.03;5090823;28;20102;-74
2022/05/31 10:31:59;;;;;;;6.75;2.72;;;;;;;17.07;53.06;101204.81;5087973;28;20020;-73
2022/05/31 10:34:35;;;;;;;5.95;2.78;;;;;;;16.98;50.40;101202.22;5108575;28;20107;-73
2022/05/31 10:37:03;;;;;;;7.40;2.72;;;;;;;16.93;52.40;101207.56;5092177;28;20028;-72
2022/05/31 10:39:31;;;;;;;7.97;2.90;;;;;;;16.85;50.33;101202.22;5094079;28;20036;-71
2022/05/31 10:42:00;;;;;;;5.50;2.85;;;;;;;16.88;54.43;101205.78;5092869;28;20028;-71
2022/05/31 10:44:33;;;;;;;7.13;2.83;;;;;;;16.79;52.55;101202.25;5091347;28;20028;-72
2022/05/31 10:47:10;;;;;;;7.05;2.78;;;;;;;16.80;51.00;101198.69;5091948;28;20074;-71
2022/05/31 10:49:36;;;;;;;5.28;2.60;;;;;;;16.73;51.40;101207.59;5109234;28;20402;-71
2022/05/31 10:52:36;;;;;;;7.82;2.42;;;;;;;16.71;51.01;101204.03;5096903;28;20024;-73
2022/05/31 10:55:01;;;;;;;3.78;2.10;;;;;;;16.74;50.34;101195.16;5090755;28;20426;-72
2022/05/31 10:57:29;;;;;;;5.65;2.03;;;;;;;16.79;49.47;101196.94;5096333;28;20032;-71
2022/05/31 11:00:14;;;;;;;5.70;1.63;;;;;;;16.83;48.19;101197.81;5096259;28;20679;-71
2022/05/31 11:02:48;;;;;;;2.67;1.63;;;;;;;16.78;48.89;101197.84;5102817;28;20036;-72
2022/05/31 11:05:16;;;;;;;4.57;1.75;;;;;;;16.67;49.17;101207.59;5093516;28;20448;-73
2022/05/31 11:14:18;;;;;;;5.85;1.58;;;;;;;16.57;50.29;101211.19;5096168;28;20062;-72
2022/05/31 11:16:50;;;;;;;2.88;1.45;;;;;;;16.68;50.89;101215.59;5087222;28;20445;-72
2022/05/31 11:19:21;;;;;;;5.60;1.70;;;;;;;16.68;51.05;101220.91;5096416;28;20024;-72
2022/05/31 11:21:52;;;;;;;4.25;1.55;;;;;;;16.75;52.06;101221.72;5100724;28;20035;-72
2022/05/31 11:24:52;;;;;;;3.17;1.60;;;;;;;16.88;50.97;101214.63;5096280;28;20024;-73
2022/05/31 11:28:00;;;;;;;3.20;1.40;;;;;;;16.87;48.75;101215.50;5089186;28;20016;-72
2022/05/31 11:31:30;;;;;;;4.03;1.35;;;;;;;16.94;49.09;101212.00;5081842;28;20044;-72
2022/05/31 11:34:08;;;;;;;2.55;1.40;;;;;;;17.02;49.59;101219.91;5057330;28;20028;-73
2022/05/31 11:36:51;;;;;;;6.20;1.90;;;;;;;17.19;50.21;101211.88;5070428;28;20465;-74
2022/05/31 11:39:44;;;;;;;3.75;1.55;;;;;;;17.20;47.50;101213.66;5091036;28;20097;-72
2022/05/31 11:42:41;;;;;;;3.73;1.87;;;;;;;17.28;47.82;101206.50;5095798;28;20036;-71
2022/05/31 11:45:15;;;;;;;4.97;1.60;;;;;;;17.32;47.75;101215.34;5088713;28;20814;-72
2022/05/31 11:47:46;;;;;;;4.25;1.75;;;;;;;17.27;48.56;101219.78;5093621;28;20111;-72
2022/05/31 11:50:34;;;;;;;3.88;2.00;;;;;;;17.31;47.69;101216.25;5095592;28;20044;-72
2022/05/31 11:53:38;;;;;;;4.03;2.10;;;;;;;17.15;47.36;101218.09;5091922;28;20032;-72
2022/05/31 11:56:13;;;;;;;4.43;2.35;;;;;;;17.15;48.06;101213.66;5066179;28;20075;-72